Time;durP1;ratioP1;P1;durP2;ratioP2;P2;SDS_P1;SDS_P2;PMS_P1;PMS_P2;Temp;Humidity;BMP_temperature;BMP_pressure;BME280_temperature;BME280_humidity;BME280_pressure;Samples;Min_cycle;Max_cycle;Signal;HPM_P1;HPM_P2
2022/07/01 00:02:02;;;;;;;4.63;1.80;;;14.40;79.10;;;;;;5032989;28;20108;-92
2022/07/01 00:04:29;;;;;;;8.73;1.98;;;14.40;79.10;;;;;;5034998;28;20053;-92
2022/07/01 00:06:57;;;;;;;5.55;1.45;;;14.40;79.10;;;;;;5032611;28;20080;-92
2022/07/01 00:09:25;;;;;;;7.10;1.60;;;14.40;79.00;;;;;;5032975;28;20084;-94
2022/07/01 00:11:52;;;;;;;3.20;1.50;;;14.30;79.00;;;;;;5031483;28;20055;-93
2022/07/01 00:14:19;;;;;;;6.55;1.60;;;14.40;79.00;;;;;;5033150;28;20049;-92
2022/07/01 00:16:46;;;;;;;5.30;1.50;;;14.30;79.00;;;;;;5033635;28;20045;-93
2022/07/01 00:19:13;;;;;;;7.20;2.05;;;14.30;79.00;;;;;;5033587;28;20049;-91
2022/07/01 00:21:40;;;;;;;4.20;1.48;;;14.30;79.00;;;;;;5026594;28;20045;-92
2022/07/01 00:24:07;;;;;;;3.85;1.75;;;14.20;79.00;;;;;;5026446;28;20049;-93
2022/07/01 00:26:34;;;;;;;6.65;1.95;;;14.20;79.00;;;;;;5029560;28;20052;-92
2022/07/01 00:29:01;;;;;;;4.82;1.83;;;14.20;79.00;;;;;;5032558;28;20110;-93
2022/07/01 00:31:28;;;;;;;4.90;1.75;;;14.20;79.00;;;;;;5033030;28;20091;-94
2022/07/01 00:33:55;;;;;;;7.00;1.80;;;14.10;79.00;;;;;;5031526;28;20089;-94
2022/07/01 00:36:22;;;;;;;5.00;1.77;;;14.10;79.00;;;;;;5032778;28;20132;-93
2022/07/01 00:38:55;;;;;;;4.32;1.88;;;14.10;79.00;;;;;;5034244;28;20045;-93
2022/07/01 00:41:22;;;;;;;7.68;2.10;;;14.00;79.00;;;;;;5032265;28;20076;-94
2022/07/01 00:43:49;;;;;;;10.82;1.58;;;14.00;79.00;;;;;;5033051;28;20042;-93
2022/07/01 00:46:23;;;;;;;5.25;1.50;;;14.00;79.00;;;;;;5014693;28;20131;-92
2022/07/01 00:48:52;;;;;;;3.95;1.67;;;14.00;79.00;;;;;;5030273;28;20057;-92
2022/07/01 00:51:19;;;;;;;5.72;1.65;;;13.90;79.10;;;;;;5033756;28;20092;-94
2022/07/01 00:53:47;;;;;;;4.18;1.65;;;13.90;79.10;;;;;;5033348;28;20053;-93
2022/07/01 00:56:15;;;;;;;3.58;1.60;;;13.90;79.10;;;;;;5034346;28;20402;-93
2022/07/01 00:58:42;;;;;;;6.25;1.80;;;13.90;79.10;;;;;;5033864;28;20068;-92
2022/07/01 01:01:10;;;;;;;4.72;1.58;;;13.90;79.10;;;;;;5015327;28;20046;-94
2022/07/01 01:03:37;;;;;;;3.15;1.60;;;13.90;79.10;;;;;;5015044;28;20085;-93
2022/07/01 01:06:04;;;;;;;5.45;1.60;;;13.90;79.10;;;;;;5023975;28;20132;-94
2022/07/01 01:08:31;;;;;;;6.13;1.63;;;13.90;79.10;;;;;;5033510;28;20101;-93
2022/07/01 01:10:59;;;;;;;5.93;1.80;;;13.80;79.10;;;;;;5033833;28;20057;-92
2022/07/01 01:13:26;;;;;;;5.22;1.50;;;13.80;79.10;;;;;;5033938;28;20041;-92
2022/07/01 01:15:53;;;;;;;4.03;1.40;;;13.80;79.10;;;;;;5031568;28;20057;-93
2022/07/01 01:18:20;;;;;;;6.65;1.63;;;13.70;79.10;;;;;;5032359;28;20049;-92
2022/07/01 01:20:47;;;;;;;7.45;1.50;;;13.70;79.00;;;;;;5030066;28;20099;-93
2022/07/01 01:23:14;;;;;;;5.22;1.77;;;13.70;79.10;;;;;;5029119;28;20076;-94
2022/07/01 01:25:41;;;;;;;4.15;1.60;;;13.70;79.10;;;;;;5012761;28;20060;-93
2022/07/01 01:28:07;;;;;;;3.30;1.48;;;13.70;79.10;;;;;;5031462;28;20060;-92
2022/07/01 01:30:35;;;;;;;5.03;1.60;;;13.70;79.10;;;;;;5033468;28;20045;-93
2022/07/01 01:33:02;;;;;;;5.35;1.70;;;13.60;79.00;;;;;;5033155;28;20049;-92
2022/07/01 01:35:31;;;;;;;5.55;1.63;;;13.60;79.00;;;;;;5033374;28;20053;-93
2022/07/01 01:37:58;;;;;;;3.95;1.48;;;13.60;79.00;;;;;;5031599;28;20128;-92
2022/07/01 01:40:25;;;;;;;3.60;1.40;;;13.60;79.00;;;;;;5033482;28;20050;-95
2022/07/01 01:42:52;;;;;;;3.08;1.30;;;13.60;79.00;;;;;;5030900;28;20049;-92
2022/07/01 01:45:19;;;;;;;3.60;1.40;;;13.50;79.00;;;;;;5032899;28;20072;-92
2022/07/01 01:47:46;;;;;;;4.85;1.30;;;13.50;79.00;;;;;;5031654;28;20092;-93
2022/07/01 01:50:14;;;;;;;5.10;1.52;;;13.50;79.00;;;;;;5032170;28;20506;-92
2022/07/01 01:52:43;;;;;;;3.85;1.60;;;13.50;79.00;;;;;;5032521;28;20045;-93
2022/07/01 01:55:10;;;;;;;6.20;1.67;;;13.50;79.10;;;;;;5025602;28;20415;-92
2022/07/01 01:57:37;;;;;;;2.67;1.45;;;13.40;79.00;;;;;;5030867;28;20056;-92
2022/07/01 02:00:08;;;;;;;3.35;1.67;;;13.40;79.10;;;;;;5026049;28;20053;-92
2022/07/01 02:02:36;;;;;;;4.10;1.60;;;13.40;79.10;;;;;;5030748;28;20052;-93
2022/07/01 02:05:13;;;;;;;5.53;1.55;;;13.40;79.10;;;;;;5030475;28;20133;-93
2022/07/01 02:07:40;;;;;;;5.28;1.83;;;13.40;79.10;;;;;;5027391;28;20084;-93
2022/07/01 02:10:08;;;;;;;3.97;1.40;;;13.40;79.10;;;;;;5030198;28;20068;-92
2022/07/01 02:12:34;;;;;;;3.08;1.42;;;13.40;79.10;;;;;;5032169;28;20041;-93
2022/07/01 02:15:01;;;;;;;3.22;1.40;;;13.40;79.10;;;;;;5030576;28;20056;-92
2022/07/01 02:17:28;;;;;;;3.38;1.40;;;13.40;79.10;;;;;;5029375;28;20046;-93
2022/07/01 02:19:55;;;;;;;5.63;1.70;;;13.40;79.10;;;;;;5030979;28;20460;-92
2022/07/01 02:22:22;;;;;;;3.58;1.60;;;13.30;79.10;;;;;;5012838;28;20057;-93
2022/07/01 02:24:49;;;;;;;3.83;1.35;;;13.30;79.00;;;;;;5029558;28;20057;-93
2022/07/01 02:27:16;;;;;;;3.80;1.38;;;13.30;79.00;;;;;;5030690;28;20055;-92
2022/07/01 02:29:43;;;;;;;4.63;1.40;;;13.20;79.00;;;;;;5024404;28;20120;-94
2022/07/01 02:32:10;;;;;;;2.55;1.40;;;13.30;79.00;;;;;;5013333;28;20104;-93
2022/07/01 02:34:37;;;;;;;3.58;1.38;;;13.20;79.00;;;;;;5012911;28;20049;-92
2022/07/01 02:37:05;;;;;;;4.50;1.52;;;13.20;79.00;;;;;;5031206;28;20064;-91
2022/07/01 02:39:35;;;;;;;4.60;1.52;;;13.20;79.00;;;;;;5031079;28;20054;-92
2022/07/01 02:44:47;;;;;;;4.68;1.58;;;13.20;78.90;;;;;;5029629;28;20044;-92
2022/07/01 02:47:14;;;;;;;4.88;1.42;;;13.20;79.00;;;;;;5030579;28;20057;-93
2022/07/01 02:49:41;;;;;;;4.72;1.40;;;13.20;79.00;;;;;;5032293;28;20046;-92
2022/07/01 02:52:08;;;;;;;3.38;1.50;;;13.10;79.00;;;;;;5028887;28;20525;-92
2022/07/01 02:54:36;;;;;;;2.72;1.35;;;13.10;79.00;;;;;;5035836;28;20053;-93
2022/07/01 02:57:03;;;;;;;4.60;1.70;;;13.10;79.00;;;;;;5025382;28;20060;-93
2022/07/01 02:59:30;;;;;;;3.90;1.40;;;13.10;79.00;;;;;;5017256;28;20462;-92
2022/07/01 03:01:57;;;;;;;3.40;1.38;;;13.10;79.00;;;;;;5017910;28;20069;-92
2022/07/01 03:04:24;;;;;;;5.10;1.58;;;13.10;79.10;;;;;;5028586;28;20042;-93
2022/07/01 03:06:51;;;;;;;3.90;1.50;;;13.10;79.10;;;;;;5034710;28;20054;-93
2022/07/01 03:09:18;;;;;;;3.20;1.45;;;13.10;79.10;;;;;;5035224;28;20045;-93
2022/07/01 03:11:45;;;;;;;4.32;1.60;;;13.10;79.10;;;;;;5039184;28;20047;-93
2022/07/01 03:14:12;;;;;;;2.95;1.20;;;13.10;79.10;;;;;;5049341;28;20050;-93
2022/07/01 03:16:39;;;;;;;3.55;1.40;;;13.10;79.10;;;;;;5035922;28;20061;-94
2022/07/01 03:19:06;;;;;;;2.55;1.35;;;13.10;79.10;;;;;;5034989;28;20107;-91
2022/07/01 03:21:33;;;;;;;4.47;1.50;;;13.10;79.10;;;;;;5032692;28;20049;-93
2022/07/01 03:24:00;;;;;;;4.05;1.40;;;13.00;79.10;;;;;;5028673;28;20085;-92
2022/07/01 03:26:27;;;;;;;5.60;1.50;;;13.10;79.10;;;;;;5032113;28;20511;-92
2022/07/01 03:28:53;;;;;;;3.90;1.33;;;13.00;79.10;;;;;;5034748;28;20053;-92
2022/07/01 03:31:20;;;;;;;5.53;1.55;;;13.00;79.00;;;;;;5033197;28;20410;-91
2022/07/01 03:33:47;;;;;;;5.03;1.45;;;13.00;79.00;;;;;;5034602;28;20129;-93
2022/07/01 03:36:14;;;;;;;3.72;1.30;;;13.00;79.00;;;;;;5034526;28;20049;-93
2022/07/01 03:38:43;;;;;;;3.97;1.60;;;12.90;79.00;;;;;;5035397;28;20045;-91
2022/07/01 03:41:10;;;;;;;4.88;1.38;;;13.00;79.00;;;;;;5031623;28;20042;-92
2022/07/01 03:43:36;;;;;;;4.05;1.20;;;12.90;79.00;;;;;;5035273;28;20049;-92
2022/07/01 03:46:03;;;;;;;7.18;1.80;;;12.90;78.90;;;;;;5034780;28;20053;-93
2022/07/01 03:48:30;;;;;;;2.10;1.15;;;12.90;78.90;;;;;;5030643;28;20050;-91
2022/07/01 03:50:57;;;;;;;3.28;1.25;;;12.90;78.90;;;;;;5032570;28;20502;-93
2022/07/01 03:56:09;;;;;;;6.53;1.50;;;12.90;78.90;;;;;;5032446;28;20060;-93
2022/07/01 03:58:36;;;;;;;5.00;1.30;;;12.90;78.90;;;;;;5015345;28;20495;-94
2022/07/01 04:01:03;;;;;;;5.07;1.30;;;12.90;78.90;;;;;;5033483;28;20123;-93
2022/07/01 04:03:30;;;;;;;5.13;1.48;;;12.90;78.90;;;;;;5020612;28;20556;-92
2022/07/01 04:05:57;;;;;;;5.63;1.35;;;12.80;78.90;;;;;;5017059;28;20521;-92
2022/07/01 04:08:25;;;;;;;4.60;1.33;;;12.80;78.90;;;;;;5031572;28;20093;-93
2022/07/01 04:10:53;;;;;;;3.30;1.30;;;12.80;78.90;;;;;;5034320;28;20053;-93
2022/07/01 04:13:20;;;;;;;3.65;1.20;;;12.80;78.90;;;;;;5034668;28;20100;-92
2022/07/01 04:15:59;;;;;;;3.92;1.20;;;12.70;78.90;;;;;;5032141;28;20050;-91
2022/07/01 04:18:27;;;;;;;4.90;1.40;;;12.80;78.90;;;;;;5032918;28;20050;-92
2022/07/01 04:23:41;;;;;;;3.13;1.25;;;12.70;78.90;;;;;;5027439;28;20057;-94
2022/07/01 04:26:08;;;;;;;3.38;1.38;;;12.70;78.90;;;;;;5014131;28;20481;-91
2022/07/01 04:28:55;;;;;;;3.47;1.30;;;12.70;78.90;;;;;;5029831;28;20089;-91
2022/07/01 04:31:22;;;;;;;2.92;1.30;;;12.70;78.90;;;;;;5030729;28;20045;-91
2022/07/01 04:33:49;;;;;;;2.95;1.15;;;12.70;78.90;;;;;;5032669;28;20525;-93
2022/07/01 04:36:17;;;;;;;5.38;1.10;;;12.60;79.00;;;;;;5030677;28;20041;-92
2022/07/01 04:38:44;;;;;;;4.22;1.73;;;12.60;79.00;;;;;;5033456;28;20049;-91
2022/07/01 04:43:57;;;;;;;2.97;1.27;;;12.60;79.00;;;;;;5031385;28;20115;-93
2022/07/01 04:46:24;;;;;;;2.95;1.58;;;12.60;79.10;;;;;;5033714;28;20062;-91
2022/07/01 04:48:51;;;;;;;3.55;1.20;;;12.60;79.10;;;;;;5033306;28;20053;-92
2022/07/01 04:51:18;;;;;;;3.42;1.38;;;12.60;79.10;;;;;;5032218;28;20053;-93
2022/07/01 04:53:45;;;;;;;4.85;1.42;;;12.60;79.20;;;;;;5033833;28;20488;-92
2022/07/01 04:56:12;;;;;;;3.00;1.30;;;12.60;79.20;;;;;;5031257;28;20472;-92
2022/07/01 04:58:39;;;;;;;3.67;1.50;;;12.60;79.20;;;;;;5028709;28;20050;-93
2022/07/01 05:01:06;;;;;;;2.40;1.20;;;12.60;79.30;;;;;;5030921;28;20053;-92
2022/07/01 05:03:34;;;;;;;2.03;1.10;;;12.60;79.30;;;;;;5030420;28;20099;-92
2022/07/01 05:06:01;;;;;;;4.03;1.30;;;12.60;79.30;;;;;;5033850;28;20049;-93
2022/07/01 05:08:28;;;;;;;4.72;1.50;;;12.60;79.40;;;;;;5029784;28;20050;-93
2022/07/01 05:10:55;;;;;;;2.17;1.10;;;12.70;79.40;;;;;;5032929;28;20474;-93
2022/07/01 05:13:23;;;;;;;5.22;1.40;;;12.60;79.40;;;;;;5013704;28;20054;-93
2022/07/01 05:15:50;;;;;;;3.75;1.17;;;12.60;79.40;;;;;;5028957;28;20049;-92
2022/07/01 05:24:06;;;;;;;5.70;1.40;;;12.70;79.60;;;;;;5004929;28;20046;-92
2022/07/01 05:26:33;;;;;;;4.03;1.25;;;12.70;79.60;;;;;;4996611;28;20050;-92
2022/07/01 05:29:00;;;;;;;3.78;1.40;;;12.70;79.70;;;;;;5008849;28;20589;-87
2022/07/01 05:31:27;;;;;;;6.53;1.52;;;12.70;79.80;;;;;;5006622;28;20057;-89
2022/07/01 05:33:54;;;;;;;3.85;1.40;;;12.70;79.80;;;;;;5001719;28;20046;-89
2022/07/01 05:36:26;;;;;;;3.00;1.25;;;12.80;79.90;;;;;;5006352;28;20538;-89
2022/07/01 05:38:53;;;;;;;3.22;1.35;;;12.80;79.90;;;;;;5005732;28;20100;-89
2022/07/01 05:41:20;;;;;;;6.60;1.70;;;12.80;80.00;;;;;;5008616;28;20053;-90
2022/07/01 05:43:47;;;;;;;5.70;1.70;;;12.80;80.00;;;;;;5006664;28;20116;-89
2022/07/01 05:46:14;;;;;;;3.47;1.50;;;12.90;80.10;;;;;;5009321;28;20053;-88
2022/07/01 05:48:41;;;;;;;3.53;1.55;;;12.90;80.10;;;;;;4989336;28;20062;-90
2022/07/01 05:51:08;;;;;;;3.53;1.60;;;12.90;80.20;;;;;;5005485;28;20050;-89
2022/07/01 05:53:35;;;;;;;3.83;1.23;;;12.90;80.20;;;;;;5009859;28;20529;-90
2022/07/01 05:56:02;;;;;;;3.15;1.55;;;12.90;80.20;;;;;;5014087;28;20529;-91
2022/07/01 05:58:29;;;;;;;4.88;1.55;;;13.00;80.30;;;;;;5026366;28;20053;-89
2022/07/01 06:00:56;;;;;;;3.67;1.30;;;13.00;80.30;;;;;;5031366;28;20045;-94
2022/07/01 06:03:34;;;;;;;2.60;1.25;;;13.00;80.30;;;;;;5035096;28;20091;-95
2022/07/01 06:06:01;;;;;;;5.35;1.50;;;13.10;80.30;;;;;;5034745;28;20568;-94
2022/07/01 06:08:28;;;;;;;3.50;1.55;;;13.10;80.40;;;;;;5034932;28;20045;-95
2022/07/01 06:10:56;;;;;;;3.50;1.30;;;13.20;80.30;;;;;;5036403;28;20060;-94
2022/07/01 06:13:23;;;;;;;5.10;1.60;;;13.20;80.40;;;;;;5034988;28;20057;-96
2022/07/01 06:15:51;;;;;;;2.70;1.33;;;13.20;80.40;;;;;;5015580;28;20825;-95
2022/07/01 06:18:18;;;;;;;4.45;1.40;;;13.30;80.40;;;;;;5015546;28;20503;-94
2022/07/01 06:20:45;;;;;;;3.95;1.50;;;13.40;80.40;;;;;;5016661;28;20060;-93
2022/07/01 06:23:12;;;;;;;4.25;1.40;;;13.40;80.40;;;;;;5019586;28;20050;-95
2022/07/01 06:25:39;;;;;;;4.47;1.40;;;13.40;80.50;;;;;;5038694;28;20049;-95
2022/07/01 06:28:05;;;;;;;4.07;1.50;;;13.50;80.50;;;;;;5037356;28;20046;-95
2022/07/01 06:30:33;;;;;;;6.20;1.42;;;13.50;80.50;;;;;;5031213;28;20049;-95
2022/07/01 06:33:00;;;;;;;5.95;1.63;;;13.60;80.50;;;;;;5023990;28;20421;-93
2022/07/01 06:35:26;;;;;;;8.82;1.73;;;13.60;80.50;;;;;;5038704;28;20057;-93
2022/07/01 06:37:53;;;;;;;3.55;1.30;;;13.70;80.60;;;;;;5040142;28;20042;-94
2022/07/01 06:40:24;;;;;;;5.18;1.60;;;13.70;80.60;;;;;;5038543;28;20072;-95
2022/07/01 06:42:53;;;;;;;5.22;1.80;;;13.80;80.60;;;;;;5037328;28;20053;-94
2022/07/01 06:45:19;;;;;;;3.80;1.38;;;13.80;80.60;;;;;;5037197;28;20049;-92
2022/07/01 06:47:46;;;;;;;6.00;1.23;;;13.90;80.60;;;;;;5036526;28;20049;-92
2022/07/01 06:50:13;;;;;;;4.65;1.70;;;13.90;80.60;;;;;;5035698;28;20567;-93
2022/07/01 06:52:40;;;;;;;5.72;1.50;;;14.00;80.60;;;;;;5035735;28;20046;-92
2022/07/01 06:55:07;;;;;;;6.45;1.70;;;14.00;80.60;;;;;;5024370;28;20108;-93
2022/07/01 06:57:34;;;;;;;4.28;1.23;;;14.10;80.60;;;;;;5029618;28;20057;-92
2022/07/01 07:00:03;;;;;;;6.55;1.58;;;14.10;80.70;;;;;;5031303;28;20042;-91
2022/07/01 07:02:30;;;;;;;3.97;1.27;;;14.10;80.70;;;;;;5032948;28;20407;-92
2022/07/01 07:04:58;;;;;;;7.72;1.40;;;14.20;80.70;;;;;;5032329;28;20076;-92
2022/07/01 07:07:28;;;;;;;5.85;1.80;;;14.20;80.70;;;;;;5031408;28;20053;-92
2022/07/01 07:09:55;;;;;;;5.22;1.60;;;14.30;80.70;;;;;;5026356;28;20049;-91
2022/07/01 07:12:24;;;;;;;5.22;1.30;;;14.40;80.80;;;;;;5029020;28;20437;-90
2022/07/01 07:14:51;;;;;;;6.40;2.10;;;14.40;80.80;;;;;;5030610;28;20063;-92
2022/07/01 07:17:18;;;;;;;4.55;1.40;;;14.40;80.80;;;;;;5033663;28;20046;-92
2022/07/01 07:19:45;;;;;;;4.85;1.70;;;14.50;80.80;;;;;;5034494;28;20414;-93
2022/07/01 07:22:12;;;;;;;7.32;1.58;;;14.50;80.80;;;;;;5022297;28;20046;-91
2022/07/01 07:24:39;;;;;;;6.55;1.35;;;14.60;80.80;;;;;;5029577;28;20046;-90
2022/07/01 07:27:07;;;;;;;6.05;1.48;;;14.60;80.90;;;;;;5025808;28;20050;-92
2022/07/01 07:29:34;;;;;;;7.72;1.70;;;14.60;80.80;;;;;;5021513;28;20473;-91
2022/07/01 07:32:01;;;;;;;6.30;1.35;;;14.70;80.90;;;;;;5033369;28;20423;-90
2022/07/01 07:34:28;;;;;;;6.32;1.60;;;14.80;80.90;;;;;;5029515;28;20053;-91
2022/07/01 07:36:55;;;;;;;6.53;2.15;;;14.80;80.90;;;;;;5026860;28;20045;-91
2022/07/01 07:39:22;;;;;;;9.60;2.10;;;14.90;81.00;;;;;;5025303;28;20058;-92
2022/07/01 07:41:49;;;;;;;8.15;1.30;;;14.90;81.00;;;;;;5019525;28;20049;-91
2022/07/01 07:44:16;;;;;;;4.60;1.27;;;14.90;80.90;;;;;;5032079;28;20053;-91
2022/07/01 07:46:43;;;;;;;6.20;1.50;;;15.00;80.90;;;;;;5033295;28;20061;-92
2022/07/01 07:49:10;;;;;;;6.13;1.20;;;15.00;80.90;;;;;;5035787;28;20050;-91
2022/07/01 07:51:38;;;;;;;7.55;1.45;;;15.10;80.90;;;;;;5032476;28;20562;-90
2022/07/01 07:54:04;;;;;;;8.02;2.03;;;15.20;80.90;;;;;;5032320;28;20084;-89
2022/07/01 07:56:31;;;;;;;4.30;1.30;;;15.20;80.80;;;;;;5029977;28;20049;-91
2022/07/01 07:58:58;;;;;;;4.88;1.52;;;15.30;80.70;;;;;;5032172;28;20046;-89
2022/07/01 08:01:26;;;;;;;4.22;1.20;;;15.30;80.60;;;;;;5028551;28;20544;-90
2022/07/01 08:03:53;;;;;;;6.10;1.45;;;15.30;80.60;;;;;;5029813;28;20049;-89
2022/07/01 08:06:20;;;;;;;6.40;1.50;;;15.40;80.50;;;;;;5028692;28;20046;-89
2022/07/01 08:08:47;;;;;;;4.05;1.23;;;15.40;80.40;;;;;;5029465;28;20422;-89
2022/07/01 08:11:14;;;;;;;5.80;1.40;;;15.40;80.40;;;;;;5029843;28;20571;-89
2022/07/01 08:13:41;;;;;;;3.90;1.40;;;15.50;80.40;;;;;;5034328;28;20049;-90
2022/07/01 08:16:09;;;;;;;7.00;1.38;;;15.60;80.30;;;;;;5028313;28;20045;-90
2022/07/01 08:18:36;;;;;;;5.15;1.50;;;15.70;80.20;;;;;;5032733;28;20064;-90
2022/07/01 08:21:03;;;;;;;4.05;1.00;;;15.60;80.10;;;;;;5029866;28;20041;-91
2022/07/01 08:23:31;;;;;;;4.70;1.30;;;15.80;79.80;;;;;;5028249;28;20050;-91
2022/07/01 08:25:57;;;;;;;7.00;1.83;;;15.80;79.60;;;;;;5031703;28;20050;-89
2022/07/01 08:28:25;;;;;;;5.95;1.40;;;15.90;79.40;;;;;;5030671;28;20445;-90
2022/07/01 08:30:52;;;;;;;8.55;1.30;;;15.90;79.30;;;;;;5031289;28;20065;-89
2022/07/01 08:33:19;;;;;;;4.72;1.02;;;15.90;79.20;;;;;;5031094;28;20124;-90
2022/07/01 08:35:46;;;;;;;5.43;1.23;;;16.00;79.10;;;;;;5027794;28;20048;-90
2022/07/01 08:38:14;;;;;;;6.10;1.50;;;16.10;79.00;;;;;;5029148;28;20045;-89
2022/07/01 08:40:47;;;;;;;4.38;1.30;;;16.10;78.90;;;;;;5031043;28;20461;-90
2022/07/01 08:43:14;;;;;;;7.90;1.38;;;16.20;78.80;;;;;;5029978;28;20399;-88
2022/07/01 08:45:43;;;;;;;7.20;1.42;;;16.30;78.70;;;;;;5028992;28;20085;-89
2022/07/01 08:48:10;;;;;;;9.13;1.50;;;16.30;78.50;;;;;;5028289;28;20476;-89
2022/07/01 08:50:40;;;;;;;6.15;1.08;;;16.40;78.20;;;;;;5029001;28;20053;-91
2022/07/01 08:53:09;;;;;;;5.82;1.42;;;16.40;77.90;;;;;;5029345;28;20041;-89
2022/07/01 08:58:25;;;;;;;4.57;1.05;;;16.50;77.40;;;;;;5031225;28;20053;-90
2022/07/01 09:00:53;;;;;;;4.47;1.30;;;16.60;77.20;;;;;;5027544;28;20510;-90
2022/07/01 09:03:26;;;;;;;5.90;1.20;;;16.70;77.10;;;;;;5027950;28;20123;-89
2022/07/01 09:05:54;;;;;;;6.70;1.20;;;16.70;77.00;;;;;;5030599;28;20041;-90
2022/07/01 09:08:27;;;;;;;4.70;1.10;;;16.80;76.90;;;;;;5031050;28;20120;-89
2022/07/01 09:10:54;;;;;;;4.38;1.20;;;16.90;76.80;;;;;;5029993;28;20057;-89
2022/07/01 09:13:21;;;;;;;3.22;1.08;;;16.90;76.60;;;;;;5031782;28;20058;-90
2022/07/01 09:15:48;;;;;;;4.10;1.15;;;17.00;76.50;;;;;;5029675;28;20052;-90
2022/07/01 09:18:17;;;;;;;3.70;1.00;;;17.00;76.40;;;;;;5028345;28;20056;-89
2022/07/01 09:20:48;;;;;;;7.80;1.33;;;17.20;76.20;;;;;;5027318;28;20045;-91
2022/07/01 09:23:17;;;;;;;8.10;1.20;;;17.30;76.10;;;;;;5028708;28;20171;-89
2022/07/01 09:25:51;;;;;;;5.93;1.15;;;17.30;75.90;;;;;;5031138;28;20049;-90
2022/07/01 09:28:23;;;;;;;4.97;1.30;;;17.40;75.50;;;;;;5031870;28;20148;-88
2022/07/01 09:30:57;;;;;;;7.90;1.33;;;17.50;75.30;;;;;;5026979;28;20057;-90
2022/07/01 09:33:24;;;;;;;2.53;0.90;;;17.50;75.10;;;;;;5027059;28;20038;-88
2022/07/01 09:35:53;;;;;;;4.38;1.15;;;17.60;74.90;;;;;;5028203;28;20335;-89
2022/07/01 09:38:24;;;;;;;5.90;1.13;;;17.70;74.80;;;;;;5026835;28;20050;-88
2022/07/01 09:41:03;;;;;;;3.42;1.13;;;17.70;74.60;;;;;;5030005;28;20041;-88
2022/07/01 09:43:33;;;;;;;3.20;1.08;;;17.80;74.40;;;;;;5031605;28;20057;-88
2022/07/01 09:46:02;;;;;;;5.57;1.38;;;17.90;74.10;;;;;;5029351;28;20502;-88
2022/07/01 09:48:32;;;;;;;3.08;0.90;;;17.90;73.90;;;;;;5026858;28;20042;-87
2022/07/01 09:51:01;;;;;;;4.60;1.13;;;18.00;73.70;;;;;;5027624;28;20045;-89
2022/07/01 09:53:29;;;;;;;4.80;1.00;;;18.10;73.50;;;;;;5026953;28;20080;-89
2022/07/01 09:55:56;;;;;;;6.00;1.17;;;18.10;73.10;;;;;;5030213;28;20072;-90
2022/07/01 09:58:24;;;;;;;7.95;1.10;;;18.20;72.80;;;;;;5028675;28;20518;-89
2022/07/01 10:00:53;;;;;;;2.20;0.85;;;18.20;72.50;;;;;;5028000;28;20045;-89
2022/07/01 10:03:21;;;;;;;4.82;1.20;;;18.30;72.30;;;;;;5027924;28;20465;-89
2022/07/01 10:06:15;;;;;;;2.63;0.70;;;18.40;72.10;;;;;;5027486;28;20044;-88
2022/07/01 10:09:13;;;;;;;5.63;1.40;;;18.40;71.80;;;;;;5027828;28;20056;-90
2022/07/01 10:12:19;;;;;;;4.43;1.15;;;18.40;71.60;;;;;;5014496;28;20053;-87
2022/07/01 10:14:48;;;;;;;3.50;1.00;;;18.40;71.40;;;;;;5025200;28;20108;-88
2022/07/01 10:17:34;;;;;;;3.33;1.15;;;18.40;71.40;;;;;;5027452;28;20473;-88
2022/07/01 10:20:28;;;;;;;4.95;1.30;;;18.50;71.10;;;;;;5027372;28;20065;-89
2022/07/01 10:23:05;;;;;;;;;;;18.50;70.90;;;;;;5027523;28;20466;-88
2022/07/01 10:25:35;;;;;;;3.78;1.15;;;18.60;70.80;;;;;;5030949;28;19930;-89
2022/07/01 10:28:49;;;;;;;3.53;0.95;;;18.60;70.70;;;;;;5027504;28;20048;-88
2022/07/01 10:31:17;;;;;;;2.45;0.80;;;18.60;70.40;;;;;;5030421;28;20533;-89
2022/07/01 10:33:48;;;;;;;2.80;0.90;;;18.60;70.20;;;;;;5027084;28;20049;-88
2022/07/01 10:36:26;;;;;;;3.08;1.05;;;18.70;70.00;;;;;;5027033;28;20136;-89
